Time;durP1;ratioP1;P1;durP2;ratioP2;P2;SDS_P1;SDS_P2;PMS_P1;PMS_P2;Temp;Humidity;BMP_temperature;BMP_pressure;BME280_temperature;BME280_humidity;BME280_pressure;Samples;Min_cycle;Max_cycle;Signal;HPM_P1;HPM_P2
2022/01/10 00:00:54;;;;;;;11.73;3.80;;;;;;;5.89;76.44;100067.13;5110761;27;20210;-65
2022/01/10 00:03:24;;;;;;;11.70;3.43;;;;;;;6.18;75.56;100065.47;5093979;28;20541;-65
2022/01/10 00:05:52;;;;;;;8.83;3.37;;;;;;;6.37;74.69;100072.66;5109760;28;20238;-66
2022/01/10 00:08:19;;;;;;;5.80;3.00;;;;;;;6.13;74.76;100075.59;5104814;27;20769;-67
2022/01/10 00:10:47;;;;;;;10.17;3.10;;;;;;;6.37;74.13;100075.28;5099234;27;20218;-70
2022/01/10 00:13:16;;;;;;;13.83;3.43;;;;;;;6.24;74.60;100083.41;5081269;28;20300;-66
2022/01/10 00:15:44;;;;;;;15.23;4.03;;;;;;;6.43;73.76;100075.59;5084761;28;20283;-65
2022/01/10 00:18:12;;;;;;;10.20;3.40;;;;;;;6.32;74.10;100082.75;5079820;28;20238;-66
2022/01/10 00:20:43;;;;;;;10.37;3.47;;;;;;;6.45;73.41;100082.53;5088559;28;20639;-66
2022/01/10 00:23:10;;;;;;;10.20;3.47;;;;;;;6.41;73.93;100085.44;5079986;28;20208;-66
2022/01/10 00:25:38;;;;;;;10.23;3.47;;;;;;;6.46;73.77;100089.47;5080687;28;20249;-66
2022/01/10 00:28:06;;;;;;;9.87;4.30;;;;;;;6.41;73.89;100089.88;5079941;28;20235;-66
2022/01/10 00:30:35;;;;;;;12.10;3.93;;;;;;;6.37;73.67;100091.94;5084122;28;20220;-66
2022/01/10 00:33:03;;;;;;;10.00;4.07;;;;;;;6.21;74.49;100104.72;5082209;28;20229;-66
2022/01/10 00:35:31;;;;;;;10.13;3.80;;;;;;;6.24;74.58;100098.38;5080570;28;20226;-65
2022/01/10 00:37:58;;;;;;;12.60;4.00;;;;;;;6.34;74.50;100107.97;5093074;28;20204;-65
2022/01/10 00:40:26;;;;;;;13.93;5.03;;;;;;;6.54;73.78;100101.03;5088855;28;20647;-65
2022/01/10 00:42:55;;;;;;;9.67;3.53;;;;;;;6.59;73.21;100108.53;5083138;28;20215;-65
2022/01/10 00:45:26;;;;;;;8.33;3.63;;;;;;;6.46;73.73;100118.44;5084345;28;20227;-65
2022/01/10 00:47:57;;;;;;;8.27;4.03;;;;;;;6.41;74.16;100124.13;5082795;28;20211;-65
2022/01/10 00:50:25;;;;;;;12.97;4.07;;;;;;;6.44;73.84;100126.47;5086609;28;20299;-65
2022/01/10 00:52:54;;;;;;;12.13;4.20;;;;;;;6.35;74.62;100124.63;5088678;28;20334;-65
2022/01/10 00:55:22;;;;;;;10.07;4.17;;;;;;;6.46;73.90;100139.53;5081720;28;20366;-65
2022/01/10 00:57:50;;;;;;;15.87;4.57;;;;;;;6.21;74.61;100141.59;5083110;28;20284;-65
2022/01/10 01:00:18;;;;;;;14.03;4.20;;;;;;;6.45;73.98;100137.84;5077318;28;20224;-65
2022/01/10 01:02:49;;;;;;;11.40;3.60;;;;;;;6.14;74.09;100145.69;5076685;28;20614;-65
2022/01/10 01:05:21;;;;;;;12.50;4.90;;;;;;;6.38;74.02;100154.19;5087116;28;20234;-66
2022/01/10 01:07:49;;;;;;;10.53;3.97;;;;;;;6.27;74.00;100150.75;5080673;28;20207;-66
2022/01/10 01:13:21;;;;;;;10.80;3.53;;;;;;;6.04;75.37;100165.84;5089265;28;20283;-66
2022/01/10 01:16:08;;;;;;;11.43;3.80;;;;;;;6.10;74.55;100167.13;5099873;28;20209;-65
2022/01/10 01:19:05;;;;;;;11.13;3.77;;;;;;;6.03;75.75;100169.44;5099218;28;20236;-65
2022/01/10 01:24:16;;;;;;;10.57;3.70;;;;;;;6.31;73.84;100168.81;5072642;27;20243;-65
2022/01/10 01:26:46;;;;;;;12.70;3.87;;;;;;;5.91;75.36;100179.16;5098059;28;20231;-65
2022/01/10 01:29:17;;;;;;;12.37;4.03;;;;;;;6.26;74.70;100176.25;5099249;28;20253;-65
2022/01/10 01:31:45;;;;;;;14.43;4.13;;;;;;;5.97;75.27;100183.09;5103949;28;20658;-64
2022/01/10 01:34:14;;;;;;;12.30;4.07;;;;;;;6.05;75.02;100193.84;5104587;27;20212;-65
2022/01/10 01:36:48;;;;;;;12.07;3.73;;;;;;;6.03;75.01;100201.84;5105479;27;20572;-67
2022/01/10 01:39:20;;;;;;;12.00;3.73;;;;;;;5.83;75.97;100205.25;5106531;28;20228;-65
2022/01/10 01:41:49;;;;;;;8.20;3.33;;;;;;;6.06;75.54;100200.78;5102793;27;20302;-69
2022/01/10 01:44:17;;;;;;;9.20;3.50;;;;;;;6.24;74.44;100204.53;5096042;27;20293;-65
2022/01/10 01:46:45;;;;;;;8.33;3.53;;;;;;;6.46;73.71;100202.72;5098012;27;20233;-65
2022/01/10 01:49:15;;;;;;;9.90;3.40;;;;;;;6.39;74.06;100213.78;5095780;27;20233;-65
2022/01/10 01:51:44;;;;;;;9.47;3.70;;;;;;;6.49;73.55;100215.66;5091265;27;20351;-65
2022/01/10 01:54:12;;;;;;;8.47;3.13;;;;;;;6.23;74.47;100218.66;5105886;28;20384;-65
2022/01/10 01:56:40;;;;;;;8.87;3.70;;;;;;;5.81;75.97;100222.94;5107638;27;20232;-66
2022/01/10 01:59:09;;;;;;;10.50;3.80;;;;;;;6.12;75.04;100218.69;5101131;28;20536;-65
2022/01/10 02:01:37;;;;;;;11.50;3.77;;;;;;;6.29;74.36;100223.41;5099891;27;20297;-64
2022/01/10 02:04:05;;;;;;;10.77;3.67;;;;;;;6.37;73.71;100230.66;5098467;27;20264;-65
2022/01/10 02:06:33;;;;;;;7.07;4.07;;;;;;;6.32;74.70;100231.06;5093838;28;20230;-64
2022/01/10 02:09:03;;;;;;;9.97;3.63;;;;;;;6.40;73.89;100239.16;5103010;28;20293;-65
2022/01/10 02:11:30;;;;;;;11.87;3.17;;;;;;;6.03;75.68;100241.34;5100103;28;20203;-65
2022/01/10 02:13:59;;;;;;;13.30;3.73;;;;;;;6.25;75.10;100245.69;5075846;28;20242;-65
2022/01/10 02:16:39;;;;;;;7.90;3.27;;;;;;;6.36;74.50;100250.91;5084636;28;20229;-65
2022/01/10 02:19:07;;;;;;;10.63;3.87;;;;;;;6.16;75.21;100249.06;5080168;28;20209;-65
2022/01/10 02:21:37;;;;;;;11.83;4.33;;;;;;;5.96;75.53;100247.22;5082902;28;20302;-65
2022/01/10 02:24:06;;;;;;;8.60;3.77;;;;;;;6.26;74.71;100252.63;5075974;28;20755;-64
2022/01/10 02:26:34;;;;;;;9.67;3.30;;;;;;;6.33;74.36;100260.88;5077037;28;20317;-65
2022/01/10 02:29:02;;;;;;;6.33;3.17;;;;;;;6.34;74.08;100262.50;5084165;28;20285;-64
2022/01/10 02:31:29;;;;;;;9.10;3.70;;;;;;;6.42;74.06;100266.19;5075862;28;20287;-64
2022/01/10 02:33:58;;;;;;;8.43;3.60;;;;;;;6.22;74.83;100264.38;5080594;28;20211;-64
2022/01/10 02:36:26;;;;;;;13.07;4.10;;;;;;;6.36;74.14;100263.22;5072860;28;20207;-65
2022/01/10 02:38:57;;;;;;;9.07;3.80;;;;;;;6.43;73.87;100262.59;5080114;28;20241;-64
2022/01/10 02:41:27;;;;;;;9.43;4.20;;;;;;;6.33;73.88;100276.69;5081208;28;20226;-65
2022/01/10 02:43:59;;;;;;;8.40;3.83;;;;;;;6.47;73.97;100278.16;5075647;28;20203;-65
2022/01/10 02:46:28;;;;;;;12.53;4.30;;;;;;;6.31;74.37;100279.44;5080471;28;20235;-65
2022/01/10 02:48:55;;;;;;;9.73;4.13;;;;;;;6.24;74.61;100273.00;5079271;28;20294;-65
2022/01/10 02:51:24;;;;;;;17.67;4.40;;;;;;;6.18;74.90;100278.75;5082004;28;20242;-65
2022/01/10 02:53:52;;;;;;;10.70;4.07;;;;;;;6.13;74.59;100285.34;5086434;28;20542;-65
2022/01/10 02:56:21;;;;;;;12.63;4.17;;;;;;;5.98;75.39;100287.44;5081730;28;20237;-64
2022/01/10 02:58:48;;;;;;;14.23;4.50;;;;;;;6.09;74.92;100294.44;5082502;28;20297;-64
2022/01/10 03:01:16;;;;;;;13.10;4.10;;;;;;;6.29;74.13;100291.88;5075697;28;20325;-64
2022/01/10 03:03:44;;;;;;;8.73;3.93;;;;;;;6.04;75.25;100302.72;5076373;28;20242;-64
2022/01/10 03:06:12;;;;;;;7.20;3.80;;;;;;;6.07;75.20;100301.66;5081297;28;20613;-64
2022/01/10 03:08:40;;;;;;;12.77;4.83;;;;;;;6.08;75.57;100306.75;5072673;28;20342;-64
2022/01/10 03:11:08;;;;;;;9.53;3.73;;;;;;;6.26;74.82;100312.34;5081153;28;20207;-64
2022/01/10 03:13:37;;;;;;;10.90;4.73;;;;;;;6.22;74.49;100314.41;5096174;28;20345;-64
2022/01/10 03:16:05;;;;;;;11.97;4.27;;;;;;;6.28;74.25;100323.59;5096765;28;20210;-64
2022/01/10 03:18:33;;;;;;;12.37;5.23;;;;;;;5.92;75.27;100324.75;5103145;28;20230;-64
2022/01/10 03:21:00;;;;;;;12.63;4.10;;;;;;;5.85;76.47;100328.78;5094750;28;20218;-64
2022/01/10 03:23:28;;;;;;;10.83;3.87;;;;;;;6.07;75.48;100334.03;5098129;28;20210;-64
2022/01/10 03:25:56;;;;;;;13.63;4.40;;;;;;;6.21;74.82;100332.97;5099753;28;20235;-64
2022/01/10 03:28:23;;;;;;;11.33;4.50;;;;;;;6.20;74.59;100342.66;5095280;28;20286;-65
2022/01/10 03:30:52;;;;;;;14.13;4.50;;;;;;;6.25;74.30;100343.09;5098023;28;20212;-64
2022/01/10 03:33:20;;;;;;;9.13;3.83;;;;;;;6.28;74.29;100350.78;5097127;28;20221;-64
2022/01/10 03:35:49;;;;;;;14.37;4.23;;;;;;;6.27;73.96;100351.72;5101510;28;20238;-64
2022/01/10 03:38:18;;;;;;;10.10;3.80;;;;;;;6.37;73.59;100357.94;5101665;28;20665;-65
2022/01/10 03:40:45;;;;;;;12.17;4.80;;;;;;;6.51;73.21;100356.00;5105485;28;20238;-65
2022/01/10 03:43:13;;;;;;;11.57;4.07;;;;;;;6.39;73.43;100358.66;5101559;28;20203;-65
2022/01/10 03:45:41;;;;;;;11.10;4.47;;;;;;;6.33;73.72;100374.91;5102281;28;20217;-65
2022/01/10 03:48:10;;;;;;;13.93;4.43;;;;;;;6.18;74.76;100372.69;5101842;28;20257;-65
2022/01/10 03:50:38;;;;;;;12.00;4.10;;;;;;;6.24;74.67;100374.84;5099633;27;20279;-65
2022/01/10 03:53:05;;;;;;;13.40;4.80;;;;;;;6.17;74.78;100374.47;5096065;27;20206;-65
2022/01/10 03:55:34;;;;;;;11.57;4.10;;;;;;;6.20;74.75;100384.78;5100128;28;20289;-65
2022/01/10 03:58:01;;;;;;;10.70;4.27;;;;;;;6.37;73.56;100378.16;5105312;28;20663;-65
2022/01/10 04:00:29;;;;;;;10.43;3.57;;;;;;;6.41;73.59;100376.97;5107972;27;20237;-65
2022/01/10 04:03:01;;;;;;;13.03;4.10;;;;;;;6.46;73.35;100381.84;5100796;27;20215;-65
2022/01/10 04:05:31;;;;;;;11.40;4.00;;;;;;;6.51;72.79;100384.97;5103342;28;20647;-65
2022/01/10 04:07:59;;;;;;;16.17;5.53;;;;;;;6.36;73.45;100393.13;5115227;27;20225;-65
2022/01/10 04:10:26;;;;;;;8.03;3.60;;;;;;;6.34;73.83;100384.50;5096283;28;20225;-66
2022/01/10 04:12:54;;;;;;;11.53;3.80;;;;;;;6.29;74.03;100399.84;5101631;28;20240;-65
2022/01/10 04:15:22;;;;;;;9.87;4.17;;;;;;;6.37;73.62;100396.59;5102822;27;20297;-65
2022/01/10 04:17:55;;;;;;;11.20;3.83;;;;;;;6.41;73.40;100401.50;5107634;27;20233;-65
2022/01/10 04:20:23;;;;;;;15.17;4.93;;;;;;;6.45;73.12;100402.09;5097610;28;20555;-65
2022/01/10 04:22:52;;;;;;;15.77;6.43;;;;;;;6.31;73.57;100403.19;5097770;28;20202;-65
2022/01/10 04:25:21;;;;;;;16.07;5.27;;;;;;;6.41;73.48;100411.22;5105119;27;20230;-65
2022/01/10 04:27:48;;;;;;;14.97;4.70;;;;;;;6.24;73.51;100415.19;5091992;27;20313;-65
2022/01/10 04:30:16;;;;;;;12.73;4.83;;;;;;;6.40;73.20;100420.06;5095116;28;20213;-65
2022/01/10 04:32:45;;;;;;;10.30;4.50;;;;;;;6.32;73.59;100428.59;5106108;28;20210;-65
2022/01/10 04:35:13;;;;;;;13.40;4.70;;;;;;;6.29;74.15;100426.19;5102243;28;20201;-65
2022/01/10 04:37:40;;;;;;;12.57;4.60;;;;;;;6.24;73.95;100432.78;5109683;27;20612;-65
2022/01/10 04:40:12;;;;;;;10.77;4.20;;;;;;;6.33;73.75;100445.22;5111612;27;20213;-65
2022/01/10 04:42:39;;;;;;;10.60;4.17;;;;;;;6.15;74.39;100444.03;5104575;28;20507;-65
2022/01/10 04:45:08;;;;;;;10.40;4.63;;;;;;;5.99;75.46;100441.75;5093425;28;20235;-66
2022/01/10 04:47:35;;;;;;;13.50;4.70;;;;;;;6.17;74.71;100456.09;5098582;27;20304;-65
2022/01/10 04:50:27;;;;;;;13.23;4.37;;;;;;;6.10;74.65;100454.91;5098391;27;20302;-65
2022/01/10 04:52:55;;;;;;;8.47;4.07;;;;;;;6.04;74.95;100461.50;5100819;27;20301;-65
2022/01/10 04:55:24;;;;;;;13.50;3.83;;;;;;;6.03;74.98;100464.25;5105944;27;20301;-66
2022/01/10 04:57:52;;;;;;;14.53;4.63;;;;;;;5.95;75.18;100464.84;5092662;28;20297;-65
2022/01/10 05:00:20;;;;;;;22.90;4.63;;;;;;;5.99;75.19;100473.31;5107403;28;20206;-65
2022/01/10 05:02:50;;;;;;;12.10;4.47;;;;;;;5.84;76.06;100487.66;5105529;28;20246;-65
2022/01/10 05:05:18;;;;;;;11.87;4.63;;;;;;;5.85;76.11;100490.16;5107403;27;20217;-65
2022/01/10 05:07:46;;;;;;;13.80;4.60;;;;;;;5.71;76.50;100498.28;5106534;27;20264;-65
2022/01/10 05:10:14;;;;;;;15.67;4.57;;;;;;;5.66;77.09;100497.78;5093712;27;20660;-65
2022/01/10 05:12:43;;;;;;;13.80;4.23;;;;;;;5.59;78.22;100501.81;5105068;28;20334;-65
2022/01/10 05:15:11;;;;;;;13.00;4.77;;;;;;;5.84;76.63;100512.16;5104280;27;20568;-65
2022/01/10 05:17:43;;;;;;;13.60;4.40;;;;;;;5.81;76.71;100511.56;5100595;27;20315;-66
2022/01/10 05:20:12;;;;;;;8.03;3.87;;;;;;;5.94;76.04;100522.88;5099041;27;20257;-65
2022/01/10 05:22:41;;;;;;;8.27;3.40;;;;;;;6.00;75.83;100519.75;5105890;27;20210;-65
2022/01/10 05:25:09;;;;;;;10.40;4.00;;;;;;;6.07;75.68;100528.03;5101470;28;20743;-65
2022/01/10 05:27:36;;;;;;;12.87;3.10;;;;;;;6.05;75.11;100533.41;5096005;28;20210;-65
2022/01/10 05:30:07;;;;;;;15.43;3.90;;;;;;;5.99;75.64;100532.06;5101148;27;20622;-65
2022/01/10 05:32:35;;;;;;;7.43;3.00;;;;;;;5.99;75.53;100542.59;5097989;27;20314;-66
2022/01/10 05:35:03;;;;;;;12.80;4.10;;;;;;;5.93;75.55;100547.50;5108932;27;20201;-65
2022/01/10 05:37:31;;;;;;;9.57;3.47;;;;;;;5.89;75.96;100552.16;5101695;28;20230;-65
2022/01/10 05:39:59;;;;;;;10.70;3.77;;;;;;;6.00;75.41;100559.25;5099479;27;20206;-65
2022/01/10 05:42:26;;;;;;;11.47;3.43;;;;;;;6.08;75.13;100562.13;5100952;27;20602;-65
2022/01/10 05:44:54;;;;;;;12.77;3.67;;;;;;;5.94;75.16;100570.25;5093214;27;20550;-64
2022/01/10 05:47:25;;;;;;;9.27;3.53;;;;;;;5.92;75.64;100572.16;5098430;27;20206;-65
2022/01/10 05:50:00;;;;;;;15.63;4.50;;;;;;;5.78;75.72;100573.16;5097311;28;20241;-65
2022/01/10 05:52:28;;;;;;;16.53;4.90;;;;;;;5.79;76.27;100581.91;5098107;27;20222;-65
2022/01/10 05:54:56;;;;;;;11.30;3.37;;;;;;;5.44;77.50;100581.88;5102820;27;20346;-65
2022/01/10 05:57:23;;;;;;;16.13;4.73;;;;;;;5.48;77.93;100581.53;5104453;28;20245;-65
2022/01/10 05:59:51;;;;;;;9.50;4.13;;;;;;;5.68;76.98;100588.78;5107299;28;20651;-65
2022/01/10 06:02:19;;;;;;;11.50;4.23;;;;;;;5.70;76.66;100593.13;5103244;27;20309;-65
2022/01/10 06:04:48;;;;;;;12.03;5.20;;;;;;;5.66;76.85;100593.31;5094557;27;20422;-64
2022/01/10 06:07:16;;;;;;;10.63;4.33;;;;;;;5.59;77.27;100602.63;5096683;27;20237;-64
2022/01/10 06:09:43;;;;;;;12.03;4.47;;;;;;;5.47;78.28;100606.16;5102566;27;20309;-65
2022/01/10 06:12:12;;;;;;;11.30;4.07;;;;;;;5.60;77.42;100614.84;5105458;28;20257;-65
2022/01/10 06:14:39;;;;;;;16.13;5.07;;;;;;;5.73;76.93;100616.53;5097704;28;20214;-65
2022/01/10 06:17:07;;;;;;;12.67;4.70;;;;;;;5.76;76.81;100621.59;5096141;28;20667;-65
2022/01/10 06:19:35;;;;;;;8.60;4.47;;;;;;;5.62;77.47;100630.50;5099647;28;20202;-65
2022/01/10 06:22:05;;;;;;;11.20;4.43;;;;;;;5.73;77.04;100634.97;5100625;28;20292;-66
2022/01/10 06:24:32;;;;;;;11.97;4.00;;;;;;;5.78;76.96;100644.22;5098296;28;20237;-66
2022/01/10 06:27:00;;;;;;;9.00;4.07;;;;;;;5.79;76.46;100645.06;5099205;28;20216;-66
2022/01/10 06:29:28;;;;;;;14.13;4.03;;;;;;;5.83;76.32;100646.50;5097639;28;20321;-66
2022/01/10 06:31:56;;;;;;;11.37;3.77;;;;;;;5.86;76.21;100656.81;5094768;27;20726;-66
2022/01/10 06:34:23;;;;;;;13.10;4.07;;;;;;;5.70;76.83;100661.53;5095518;28;20706;-66
2022/01/10 06:36:51;;;;;;;12.70;4.40;;;;;;;5.88;76.11;100662.84;5095764;28;20203;-66
2022/01/10 06:39:20;;;;;;;13.37;5.07;;;;;;;5.84;76.44;100669.22;5102992;28;20690;-66
2022/01/10 06:41:48;;;;;;;16.33;4.67;;;;;;;5.94;75.65;100665.00;5097509;28;20311;-65
2022/01/10 06:44:16;;;;;;;13.87;4.20;;;;;;;5.89;75.79;100672.41;5090835;28;20578;-65
2022/01/10 06:46:43;;;;;;;12.40;4.73;;;;;;;6.10;75.29;100683.97;5097527;28;20277;-65
2022/01/10 06:49:11;;;;;;;15.73;4.57;;;;;;;5.94;76.08;100683.44;5100346;28;20227;-66
2022/01/10 06:51:39;;;;;;;12.20;4.67;;;;;;;5.83;76.54;100684.19;5115358;28;20229;-65
2022/01/10 06:54:06;;;;;;;11.03;5.10;;;;;;;5.39;78.03;100692.66;5097101;28;20579;-64
2022/01/10 06:56:36;;;;;;;9.93;3.37;;;;;;;5.41;77.99;100703.91;5102203;28;20260;-65
2022/01/10 06:59:03;;;;;;;10.03;3.93;;;;;;;5.40;78.09;100702.22;5104061;28;20294;-65
2022/01/10 07:01:31;;;;;;;12.20;3.90;;;;;;;5.26;79.26;100720.78;5095982;28;20311;-65
2022/01/10 07:04:03;;;;;;;13.93;4.77;;;;;;;5.55;77.86;100713.44;5096273;28;20681;-60
2022/01/10 07:06:31;;;;;;;15.33;3.67;;;;;;;5.63;77.16;100727.72;5101515;28;20210;-60
2022/01/10 07:08:59;;;;;;;10.27;3.70;;;;;;;5.72;76.80;100733.31;5100897;28;20235;-60
2022/01/10 07:11:26;;;;;;;13.20;4.13;;;;;;;5.91;75.72;100738.91;5102176;28;20217;-60
2022/01/10 07:13:55;;;;;;;12.77;3.90;;;;;;;5.83;75.85;100746.50;5103580;28;20294;-60
2022/01/10 07:16:23;;;;;;;11.43;3.97;;;;;;;5.63;76.27;100748.75;5094196;28;20770;-60
2022/01/10 07:18:51;;;;;;;8.77;3.43;;;;;;;5.67;76.01;100763.41;5101563;28;20217;-61
2022/01/10 07:21:19;;;;;;;11.23;3.57;;;;;;;5.63;75.98;100764.56;5104065;28;20222;-60
2022/01/10 07:23:48;;;;;;;14.30;4.53;;;;;;;5.64;75.90;100774.13;5098851;27;20211;-61
2022/01/10 07:26:15;;;;;;;10.33;4.17;;;;;;;5.72;75.79;100788.56;5104524;27;20236;-61
2022/01/10 07:28:43;;;;;;;11.80;5.13;;;;;;;5.57;76.11;100791.31;5099715;27;20224;-60
2022/01/10 07:31:13;;;;;;;11.90;5.83;;;;;;;5.63;75.95;100798.75;5097110;28;20233;-61
2022/01/10 07:33:40;;;;;;;13.97;5.63;;;;;;;5.62;75.75;100805.00;5098926;27;20202;-61
2022/01/10 07:36:08;;;;;;;15.70;5.53;;;;;;;5.51;76.22;100807.53;5125812;27;20304;-61
2022/01/10 07:38:36;;;;;;;17.83;5.87;;;;;;;5.55;75.94;100816.88;5101613;28;20230;-61
2022/01/10 07:41:06;;;;;;;19.67;5.80;;;;;;;5.59;75.74;100817.50;5103823;28;20360;-61
2022/01/10 07:43:34;;;;;;;17.73;4.87;;;;;;;5.58;75.74;100813.19;5100232;28;20298;-61
2022/01/10 07:46:03;;;;;;;15.07;5.93;;;;;;;5.54;75.51;100820.44;5103097;27;20202;-61
2022/01/10 07:48:37;;;;;;;14.43;5.23;;;;;;;5.55;75.81;100816.88;5100606;27;20209;-61
2022/01/10 07:51:08;;;;;;;13.23;5.23;;;;;;;5.59;75.50;100820.13;5109452;27;20224;-62
2022/01/10 07:53:36;;;;;;;19.00;5.23;;;;;;;5.39;76.02;100824.16;5103396;27;20221;-58
2022/01/10 07:56:05;;;;;;;14.97;6.00;;;;;;;5.48;76.14;100833.19;5103139;28;20660;-60
2022/01/10 07:58:33;;;;;;;12.97;5.20;;;;;;;5.49;76.14;100833.09;5096043;27;20566;-61
2022/01/10 08:01:01;;;;;;;17.70;6.13;;;;;;;5.59;75.32;100835.94;5104063;27;20216;-60
2022/01/10 08:03:29;;;;;;;13.53;5.30;;;;;;;5.48;75.68;100847.19;5108500;28;20202;-61
2022/01/10 08:05:58;;;;;;;12.83;5.33;;;;;;;5.42;75.90;100854.66;5100008;27;20206;-61
2022/01/10 08:08:26;;;;;;;12.23;5.77;;;;;;;5.43;75.83;100851.09;5101487;27;20206;-61
2022/01/10 08:10:54;;;;;;;16.40;5.50;;;;;;;5.51;75.47;100859.28;5099580;27;20234;-62
2022/01/10 08:13:23;;;;;;;18.40;5.47;;;;;;;5.62;75.23;100868.13;5100826;27;20237;-61
2022/01/10 08:15:51;;;;;;;17.00;5.10;;;;;;;5.63;75.19;100872.41;5099723;28;20242;-61
2022/01/10 08:18:19;;;;;;;12.53;4.80;;;;;;;5.54;75.41;100872.25;5105660;27;20682;-60
2022/01/10 08:20:47;;;;;;;15.93;5.83;;;;;;;5.59;75.62;100884.13;5101547;28;20202;-61
2022/01/10 08:23:16;;;;;;;12.33;5.30;;;;;;;5.71;75.57;100890.34;5097293;27;20211;-61
2022/01/10 08:25:44;;;;;;;14.77;5.00;;;;;;;5.75;75.03;100880.41;5103613;27;20233;-60
2022/01/10 08:28:11;;;;;;;12.80;5.17;;;;;;;5.78;74.78;100890.75;5107046;28;20220;-61
2022/01/10 08:30:39;;;;;;;14.83;5.43;;;;;;;5.96;74.01;100892.13;5104536;28;20260;-62
2022/01/10 08:33:07;;;;;;;16.67;6.20;;;;;;;5.82;74.85;100897.47;5099231;27;20239;-62
2022/01/10 08:35:35;;;;;;;18.83;5.73;;;;;;;5.90;74.83;100901.25;5096726;28;20203;-62
2022/01/10 08:38:03;;;;;;;12.43;5.10;;;;;;;5.95;74.55;100908.84;5099561;27;20207;-62
2022/01/10 08:40:32;;;;;;;14.03;5.90;;;;;;;5.90;74.50;100911.78;5100435;28;20214;-62
2022/01/10 08:43:06;;;;;;;16.43;5.73;;;;;;;6.15;74.00;100916.19;5097093;28;20219;-61
2022/01/10 08:45:33;;;;;;;12.10;4.63;;;;;;;6.14;74.19;100917.13;5103797;27;20198;-61
2022/01/10 08:48:01;;;;;;;13.80;5.30;;;;;;;6.25;73.56;100922.47;5102692;27;20220;-63
2022/01/10 08:50:29;;;;;;;17.73;5.23;;;;;;;6.31;73.42;100922.03;5101587;27;20338;-61
2022/01/10 08:52:57;;;;;;;10.20;4.57;;;;;;;6.38;73.18;100931.19;5092108;28;20209;-61
2022/01/10 08:55:25;;;;;;;14.47;4.80;;;;;;;6.37;73.18;100937.41;5104295;27;20685;-59
2022/01/10 08:57:54;;;;;;;11.43;5.03;;;;;;;6.49;72.73;100940.13;5101075;27;20293;-60
2022/01/10 09:00:22;;;;;;;17.40;5.67;;;;;;;6.34;73.13;100942.88;5104038;28;20198;-59
2022/01/10 09:02:50;;;;;;;12.60;4.47;;;;;;;6.39;73.23;100945.19;5106029;28;20211;-61
2022/01/10 09:05:18;;;;;;;9.53;4.20;;;;;;;6.42;73.25;100953.72;5104339;28;20211;-61
2022/01/10 09:07:45;;;;;;;17.43;4.70;;;;;;;6.41;73.18;100957.31;5105245;27;20230;-60
2022/01/10 09:10:13;;;;;;;15.83;4.97;;;;;;;6.51;73.39;100967.19;5097233;27;20313;-61
2022/01/10 09:12:41;;;;;;;15.13;5.13;;;;;;;6.61;72.56;100965.56;5105127;27;20549;-65
2022/01/10 09:15:11;;;;;;;19.07;6.07;;;;;;;6.64;71.95;100970.63;5097490;28;20509;-64
2022/01/10 09:17:38;;;;;;;18.73;6.30;;;;;;;6.74;71.86;100975.13;5106062;28;20286;-64
2022/01/10 09:20:07;;;;;;;14.53;5.17;;;;;;;6.77;71.72;100972.25;5100910;27;20661;-64
2022/01/10 09:22:35;;;;;;;18.53;6.20;;;;;;;6.86;71.70;100970.72;5091433;27;20953;-65
2022/01/10 09:25:03;;;;;;;14.97;5.40;;;;;;;6.85;71.73;100976.13;5095762;27;20251;-64
2022/01/10 09:27:31;;;;;;;17.53;6.80;;;;;;;6.87;72.13;100988.22;5098537;28;20204;-65
2022/01/10 09:29:58;;;;;;;15.87;5.87;;;;;;;7.02;71.31;100989.78;5100439;28;20333;-63
2022/01/10 09:32:27;;;;;;;28.53;10.70;;;;;;;7.16;70.89;100992.22;5104903;27;20297;-63
2022/01/10 09:34:55;;;;;;;20.83;9.80;;;;;;;7.22;70.32;100990.91;5120207;27;20239;-61
2022/01/10 09:37:25;;;;;;;19.80;8.63;;;;;;;7.25;69.54;100997.75;5095372;28;20212;-61
2022/01/10 09:39:58;;;;;;;15.87;6.30;;;;;;;7.18;69.44;101000.88;5108005;28;20204;-61
2022/01/10 09:42:26;;;;;;;14.13;6.73;;;;;;;7.38;69.05;101009.09;5100908;27;20205;-61
2022/01/10 09:44:54;;;;;;;14.97;7.23;;;;;;;7.57;68.74;101009.38;5107584;27;20214;-61
2022/01/10 09:47:21;;;;;;;17.63;6.73;;;;;;;7.77;68.66;101006.09;5097977;27;20243;-61
2022/01/10 09:49:50;;;;;;;17.90;6.17;;;;;;;8.03;67.54;101009.34;5113496;27;20305;-64
2022/01/10 09:52:19;;;;;;;13.27;5.60;;;;;;;7.99;67.46;101021.13;5108433;28;20940;-65
2022/01/10 09:54:46;;;;;;;12.37;5.60;;;;;;;8.21;66.91;101025.56;5104927;27;20730;-62
2022/01/10 09:57:14;;;;;;;9.73;5.10;;;;;;;8.17;66.90;101026.78;5100069;28;20247;-63
2022/01/10 09:59:42;;;;;;;14.67;6.37;;;;;;;8.20;67.15;101029.19;5106071;28;20271;-62
2022/01/10 10:02:12;;;;;;;13.63;5.33;;;;;;;8.19;66.94;101032.78;5105107;27;20293;-63
2022/01/10 10:04:41;;;;;;;11.77;5.37;;;;;;;8.21;66.69;101038.78;5098472;28;20198;-62
2022/01/10 10:07:10;;;;;;;12.37;4.93;;;;;;;8.14;67.05;101040.22;5095422;28;20238;-61
2022/01/10 10:09:39;;;;;;;12.73;5.00;;;;;;;8.45;65.73;101042.19;5103338;27;20316;-63
2022/01/10 10:12:09;;;;;;;14.50;6.10;;;;;;;8.44;65.79;101045.81;5095400;27;20243;-63
2022/01/10 10:14:40;;;;;;;14.53;5.03;;;;;;;8.87;64.33;101047.69;5102045;27;20695;-63
2022/01/10 10:17:13;;;;;;;13.57;5.57;;;;;;;9.73;61.66;101050.25;5099129;28;20203;-63
2022/01/10 10:19:43;;;;;;;16.13;5.37;;;;;;;9.86;60.45;101050.91;5102599;28;20293;-62
2022/01/10 10:22:15;;;;;;;12.30;5.70;;;;;;;9.30;61.97;101053.81;5102753;28;20592;-63
2022/01/10 10:24:46;;;;;;;16.37;6.83;;;;;;;9.54;62.07;101061.53;5098978;27;20527;-63
2022/01/10 10:27:17;;;;;;;16.80;6.50;;;;;;;9.61;60.35;101051.28;5092385;28;20244;-63
2022/01/10 10:30:09;;;;;;;12.53;5.50;;;;;;;9.02;63.21;101060.53;5097014;27;20225;-62
2022/01/10 10:32:37;;;;;;;11.33;5.27;;;;;;;9.47;61.72;101059.53;5108642;28;20235;-62
2022/01/10 10:35:11;;;;;;;15.80;5.90;;;;;;;10.70;58.44;101056.94;5094017;28;20729;-64
2022/01/10 10:37:42;;;;;;;17.27;5.43;;;;;;;9.36;60.84;101060.41;5093015;28;20294;-64
2022/01/10 10:40:14;;;;;;;13.67;6.33;;;;;;;8.82;62.67;101068.34;5096594;28;20202;-63
2022/01/10 10:42:43;;;;;;;15.57;4.87;;;;;;;10.83;57.46;101055.72;5104337;28;20229;-63
2022/01/10 10:45:13;;;;;;;16.27;5.33;;;;;;;14.67;46.09;101054.00;5094006;28;20288;-62
2022/01/10 10:47:44;;;;;;;17.57;5.30;;;;;;;16.00;42.21;101056.56;5109235;28;20214;-62
2022/01/10 10:50:12;;;;;;;14.47;5.10;;;;;;;16.61;40.56;101057.78;5097728;28;20213;-63
2022/01/10 10:52:42;;;;;;;18.20;6.30;;;;;;;16.17;41.64;101066.25;5094633;28;20675;-63
2022/01/10 10:55:12;;;;;;;15.67;6.23;;;;;;;17.12;40.15;101065.25;5094376;28;20207;-62
2022/01/10 10:57:41;;;;;;;10.70;5.20;;;;;;;18.08;36.98;101063.88;5109521;28;20214;-63
2022/01/10 11:00:11;;;;;;;16.63;6.30;;;;;;;17.97;37.70;101075.88;5099787;28;20225;-65
2022/01/10 11:02:40;;;;;;;17.65;6.05;;;;;;;16.31;39.83;101078.09;5103662;27;20207;-63
2022/01/10 11:05:08;;;;;;;10.15;5.13;;;;;;;14.17;44.66;101077.84;5105355;27;20718;-63
2022/01/10 11:07:36;;;;;;;13.30;5.20;;;;;;;12.87;47.65;101081.09;5110738;27;20233;-63
2022/01/10 11:10:16;;;;;;;13.60;5.72;;;;;;;12.97;48.36;101085.38;5110206;27;20256;-64
2022/01/10 11:12:50;;;;;;;15.30;5.93;;;;;;;15.58;42.17;101088.81;5097668;28;20703;-63
2022/01/10 11:15:18;;;;;;;11.93;4.50;;;;;;;15.78;41.40;101095.53;5102808;27;20265;-63
2022/01/10 11:17:45;;;;;;;11.27;5.43;;;;;;;14.74;43.72;101097.75;5104052;27;20206;-63
2022/01/10 11:20:16;;;;;;;13.68;6.22;;;;;;;13.65;45.86;101093.78;5109763;27;20210;-63
2022/01/10 11:22:46;;;;;;;12.75;5.57;;;;;;;12.35;47.77;101108.19;5110559;27;20266;-63
2022/01/10 11:25:26;;;;;;;15.02;5.90;;;;;;;11.56;51.03;101104.88;5102472;28;20237;-64
2022/01/10 11:27:57;;;;;;;17.38;5.72;;;;;;;12.79;49.12;101111.13;5112578;27;20714;-64
2022/01/10 11:30:29;;;;;;;15.27;6.25;;;;;;;14.06;46.13;101112.78;5108624;27;20292;-64
2022/01/10 11:33:03;;;;;;;13.60;5.75;;;;;;;14.15;45.29;101117.19;5110363;27;20289;-64
2022/01/10 11:35:51;;;;;;;13.63;5.85;;;;;;;13.34;47.79;101124.44;5119160;27;20206;-64
2022/01/10 11:38:32;;;;;;;12.23;6.45;;;;;;;14.07;46.30;101119.81;5110357;27;20673;-63
2022/01/10 11:41:04;;;;;;;13.65;6.30;;;;;;;13.45;46.95;101122.41;5100528;28;20246;-64